Time;durP1;ratioP1;P1;durP2;ratioP2;P2;SDS_P1;SDS_P2;PMS_P1;PMS_P2;Temp;Humidity;BMP_temperature;BMP_pressure;BME280_temperature;BME280_humidity;BME280_pressure;Samples;Min_cycle;Max_cycle;Signal;HPM_P1;HPM_P2
2023/05/04 00:00:26;;;;;;;5.87;2.93;;;;;;;;;;5073457;28;20056;-81
2023/05/04 00:02:52;;;;;;;7.53;3.07;;;;;;;;;;5071913;28;20013;-79
2023/05/04 00:05:19;;;;;;;4.03;2.87;;;;;;;;;;5092488;28;20028;-80
2023/05/04 00:07:45;;;;;;;9.27;3.73;;;;;;;;;;5072835;28;20033;-79
2023/05/04 00:10:11;;;;;;;6.27;3.60;;;;;;;;;;5070613;28;20131;-80
2023/05/04 00:12:37;;;;;;;7.63;3.43;;;;;;;;;;5072071;28;20033;-80
2023/05/04 00:15:03;;;;;;;5.10;3.17;;;;;;;;;;5072044;28;20027;-79
2023/05/04 00:17:29;;;;;;;7.43;2.97;;;;;;;;;;5072790;28;20005;-81
2023/05/04 00:19:58;;;;;;;6.63;3.70;;;;;;;;;;5072835;28;21381;-80
2023/05/04 00:22:24;;;;;;;7.83;3.33;;;;;;;;;;5073038;28;20021;-81
2023/05/04 00:24:50;;;;;;;5.17;2.90;;;;;;;;;;5073239;28;20033;-80
2023/05/04 00:27:16;;;;;;;8.27;3.00;;;;;;;;;;5072944;28;20093;-80
2023/05/04 00:29:44;;;;;;;5.20;3.10;;;;;;;;;;5073233;28;20021;-78
2023/05/04 00:32:12;;;;;;;4.83;3.10;;;;;;;;;;5086856;28;20044;-81
2023/05/04 00:34:38;;;;;;;9.00;3.83;;;;;;;;;;5072973;28;20040;-79
2023/05/04 00:37:05;;;;;;;12.23;3.43;;;;;;;;;;5073024;28;20036;-81
2023/05/04 00:39:33;;;;;;;7.73;3.23;;;;;;;;;;5073435;28;20025;-80
2023/05/04 00:42:00;;;;;;;6.70;3.17;;;;;;;;;;5073145;28;20013;-81
2023/05/04 00:44:26;;;;;;;6.17;3.40;;;;;;;;;;5070324;28;20037;-81
2023/05/04 00:46:52;;;;;;;4.63;3.07;;;;;;;;;;5072941;28;20037;-81
2023/05/04 00:49:20;;;;;;;8.20;3.37;;;;;;;;;;5084037;28;20037;-79
2023/05/04 00:51:48;;;;;;;6.87;2.90;;;;;;;;;;5071940;28;20048;-79
2023/05/04 00:54:17;;;;;;;4.73;2.93;;;;;;;;;;5071509;28;20097;-79
2023/05/04 00:56:43;;;;;;;5.73;3.27;;;;;;;;;;5070876;28;20041;-81
2023/05/04 00:59:09;;;;;;;5.87;3.40;;;;;;;;;;5072854;28;20029;-79
2023/05/04 01:01:35;;;;;;;8.53;3.73;;;;;;;;;;5071879;28;20024;-78
2023/05/04 01:04:01;;;;;;;6.10;3.57;;;;;;;;;;5086545;28;20071;-78
2023/05/04 01:06:27;;;;;;;7.03;3.20;;;;;;;;;;5071524;28;20021;-79
2023/05/04 01:09:10;;;;;;;8.33;3.93;;;;;;;;;;5069934;28;20041;-81
2023/05/04 01:11:36;;;;;;;9.23;3.38;;;;;;;;;;5070604;28;20044;-81
2023/05/04 01:14:03;;;;;;;7.20;3.37;;;;;;;;;;5071126;28;20029;-80
2023/05/04 01:16:29;;;;;;;9.17;3.87;;;;;;;;;;5069383;28;20048;-78
2023/05/04 01:18:55;;;;;;;7.90;3.43;;;;;;;;;;5071039;28;20202;-80
2023/05/04 01:21:21;;;;;;;9.60;3.23;;;;;;;;;;5071306;28;20043;-79
2023/05/04 01:23:47;;;;;;;7.43;3.70;;;;;;;;;;5071988;28;20031;-79
2023/05/04 01:26:16;;;;;;;8.30;3.57;;;;;;;;;;5071661;28;20038;-79
2023/05/04 01:28:48;;;;;;;11.10;3.70;;;;;;;;;;5072361;28;20029;-80
2023/05/04 01:31:15;;;;;;;8.32;3.35;;;;;;;;;;5088275;28;20017;-80
2023/05/04 01:33:42;;;;;;;8.80;3.40;;;;;;;;;;5070575;28;20061;-81
2023/05/04 01:36:08;;;;;;;10.00;3.53;;;;;;;;;;5072265;28;20021;-79
2023/05/04 01:38:34;;;;;;;8.57;3.10;;;;;;;;;;5072708;28;20031;-79
2023/05/04 01:41:01;;;;;;;7.30;3.00;;;;;;;;;;5072696;28;20045;-78
2023/05/04 01:43:27;;;;;;;8.17;4.33;;;;;;;;;;5068025;28;20032;-81
2023/05/04 01:45:53;;;;;;;8.80;4.07;;;;;;;;;;5071535;28;20060;-80
2023/05/04 01:48:19;;;;;;;7.97;3.50;;;;;;;;;;5071503;28;20025;-79
2023/05/04 01:50:45;;;;;;;6.60;3.50;;;;;;;;;;5071250;28;20093;-80
2023/05/04 01:53:11;;;;;;;8.07;3.77;;;;;;;;;;5071572;28;20017;-81
2023/05/04 01:55:37;;;;;;;10.03;3.40;;;;;;;;;;5072373;28;20085;-81
2023/05/04 01:58:03;;;;;;;5.50;3.13;;;;;;;;;;5072980;28;20062;-78
2023/05/04 02:00:29;;;;;;;6.80;3.70;;;;;;;;;;5068903;28;20029;-78
2023/05/04 02:02:55;;;;;;;8.07;3.67;;;;;;;;;;5068243;28;20064;-78
2023/05/04 02:05:21;;;;;;;8.00;4.43;;;;;;;;;;5070921;28;20037;-79
2023/05/04 02:07:47;;;;;;;7.13;3.73;;;;;;;;;;5075489;28;20085;-79
2023/05/04 02:10:13;;;;;;;9.20;4.33;;;;;;;;;;5074036;28;20025;-79
2023/05/04 02:12:41;;;;;;;11.47;3.63;;;;;;;;;;5075297;28;20036;-82
2023/05/04 02:15:07;;;;;;;9.60;4.00;;;;;;;;;;5074491;28;20021;-81
2023/05/04 02:17:33;;;;;;;7.87;4.63;;;;;;;;;;5074898;28;20040;-80
2023/05/04 02:20:03;;;;;;;9.33;3.93;;;;;;;;;;5075098;28;20021;-79
2023/05/04 02:22:29;;;;;;;11.60;4.07;;;;;;;;;;5073421;28;20029;-78
2023/05/04 02:24:55;;;;;;;6.50;4.00;;;;;;;;;;5074962;28;20112;-79
2023/05/04 02:27:21;;;;;;;7.40;3.80;;;;;;;;;;5091332;28;20013;-81
2023/05/04 02:29:49;;;;;;;8.50;3.47;;;;;;;;;;5075423;28;20051;-80
2023/05/04 02:32:16;;;;;;;8.90;3.97;;;;;;;;;;5074785;28;20031;-79
2023/05/04 02:34:42;;;;;;;7.30;3.57;;;;;;;;;;5075091;28;20021;-80
2023/05/04 02:37:08;;;;;;;6.70;4.03;;;;;;;;;;5074220;28;20047;-81
2023/05/04 02:39:34;;;;;;;6.30;3.90;;;;;;;;;;5074440;28;20017;-80
2023/05/04 02:42:03;;;;;;;9.03;3.70;;;;;;;;;;5071506;28;20029;-79
2023/05/04 02:44:29;;;;;;;8.43;4.40;;;;;;;;;;5074340;28;20025;-80
2023/05/04 02:46:55;;;;;;;11.03;3.90;;;;;;;;;;5089097;28;20055;-80
2023/05/04 02:49:21;;;;;;;8.47;3.90;;;;;;;;;;5074906;28;20062;-82
2023/05/04 02:51:47;;;;;;;7.93;4.00;;;;;;;;;;5074521;28;20088;-81
2023/05/04 02:54:15;;;;;;;10.17;4.50;;;;;;;;;;5074420;28;20033;-80
2023/05/04 02:56:41;;;;;;;10.40;4.57;;;;;;;;;;5073319;28;20021;-79
2023/05/04 02:59:07;;;;;;;7.90;4.10;;;;;;;;;;5073144;28;20041;-81
2023/05/04 03:01:33;;;;;;;7.30;4.00;;;;;;;;;;5073441;28;20028;-80
2023/05/04 03:03:59;;;;;;;7.77;3.80;;;;;;;;;;5073557;28;20036;-78
2023/05/04 03:06:25;;;;;;;7.43;4.13;;;;;;;;;;5074462;28;20025;-81
2023/05/04 03:08:51;;;;;;;9.63;4.17;;;;;;;;;;5074024;28;20027;-81
2023/05/04 03:11:18;;;;;;;7.40;4.07;;;;;;;;;;5072911;28;20017;-81
2023/05/04 03:13:44;;;;;;;5.87;3.63;;;;;;;;;;5074012;28;20013;-78
2023/05/04 03:16:10;;;;;;;8.13;4.20;;;;;;;;;;5073814;28;20056;-81
2023/05/04 03:18:36;;;;;;;11.90;4.47;;;;;;;;;;5071702;28;20025;-79
2023/05/04 03:21:02;;;;;;;9.77;4.37;;;;;;;;;;5074083;28;20059;-79
2023/05/04 03:23:28;;;;;;;7.47;3.90;;;;;;;;;;5070272;28;20025;-78
2023/05/04 03:25:55;;;;;;;11.83;4.47;;;;;;;;;;5085201;28;20033;-80
2023/05/04 03:28:21;;;;;;;8.83;4.50;;;;;;;;;;5074067;28;20044;-80
2023/05/04 03:30:49;;;;;;;11.43;4.77;;;;;;;;;;5071656;28;20036;-80
2023/05/04 03:33:15;;;;;;;8.23;3.97;;;;;;;;;;5086656;28;20083;-79
2023/05/04 03:35:41;;;;;;;5.43;3.77;;;;;;;;;;5073760;28;20017;-80
2023/05/04 03:38:10;;;;;;;7.77;4.17;;;;;;;;;;5072941;28;20024;-81
2023/05/04 03:40:39;;;;;;;8.23;4.37;;;;;;;;;;5071630;28;20064;-81
2023/05/04 03:43:05;;;;;;;9.93;3.90;;;;;;;;;;5073283;28;20123;-80
2023/05/04 03:45:31;;;;;;;8.87;4.23;;;;;;;;;;5087140;28;20051;-79
2023/05/04 03:47:59;;;;;;;7.67;4.17;;;;;;;;;;5070730;28;20020;-80
2023/05/04 03:50:25;;;;;;;8.93;4.03;;;;;;;;;;5073617;28;20021;-81
2023/05/04 03:52:51;;;;;;;11.50;4.57;;;;;;;;;;5073772;28;20043;-81
2023/05/04 03:55:18;;;;;;;6.87;4.27;;;;;;;;;;5086469;28;20025;-82
2023/05/04 03:57:44;;;;;;;8.90;4.43;;;;;;;;;;5072507;28;20040;-79
2023/05/04 04:00:10;;;;;;;8.37;3.70;;;;;;;;;;5073305;28;20025;-78
2023/05/04 04:02:36;;;;;;;9.90;4.33;;;;;;;;;;5071369;28;20048;-80
2023/05/04 04:05:02;;;;;;;13.00;4.80;;;;;;;;;;5073202;28;20033;-78
2023/05/04 04:07:28;;;;;;;9.97;4.97;;;;;;;;;;5089981;28;20049;-79
2023/05/04 04:09:54;;;;;;;9.23;3.87;;;;;;;;;;5072337;28;20036;-79
2023/05/04 04:12:23;;;;;;;6.23;4.37;;;;;;;;;;5072660;28;20029;-80
2023/05/04 04:14:50;;;;;;;9.17;4.00;;;;;;;;;;5072481;28;20522;-80
2023/05/04 04:17:19;;;;;;;9.03;4.27;;;;;;;;;;5072223;28;20029;-80
2023/05/04 04:19:45;;;;;;;10.67;4.10;;;;;;;;;;5073208;28;20052;-81
2023/05/04 04:22:11;;;;;;;24.47;4.43;;;;;;;;;;5090520;28;20097;-79
2023/05/04 04:24:38;;;;;;;12.97;4.30;;;;;;;;;;5072438;28;20016;-80
2023/05/04 04:27:06;;;;;;;5.80;3.67;;;;;;;;;;5072995;28;20039;-80
2023/05/04 04:29:34;;;;;;;8.13;3.70;;;;;;;;;;5072534;28;20013;-80
2023/05/04 04:32:02;;;;;;;10.57;3.83;;;;;;;;;;5072789;28;20028;-80
2023/05/04 04:34:28;;;;;;;7.67;3.97;;;;;;;;;;5072060;28;20017;-80
2023/05/04 04:36:57;;;;;;;9.40;3.73;;;;;;;;;;5071887;28;20095;-80
2023/05/04 04:39:23;;;;;;;11.70;4.43;;;;;;;;;;5072281;28;20053;-80
2023/05/04 04:41:55;;;;;;;7.67;4.20;;;;;;;;;;5073019;28;20580;-81
2023/05/04 04:44:21;;;;;;;8.67;4.77;;;;;;;;;;5087391;28;20080;-81
2023/05/04 04:46:51;;;;;;;8.63;4.53;;;;;;;;;;5071878;28;20060;-79
2023/05/04 04:49:20;;;;;;;9.20;4.20;;;;;;;;;;5071291;28;20033;-79
2023/05/04 04:51:47;;;;;;;8.97;3.90;;;;;;;;;;5069625;28;20036;-78
2023/05/04 04:54:16;;;;;;;7.23;4.00;;;;;;;;;;5071473;28;20048;-81
2023/05/04 04:56:44;;;;;;;9.47;3.90;;;;;;;;;;5087294;28;20036;-83
2023/05/04 04:59:11;;;;;;;8.97;4.57;;;;;;;;;;5072104;28;20074;-82
2023/05/04 05:01:37;;;;;;;11.63;4.43;;;;;;;;;;5089570;28;20037;-80
2023/05/04 05:04:04;;;;;;;6.70;4.20;;;;;;;;;;5072225;28;20017;-79
2023/05/04 05:06:30;;;;;;;5.63;4.23;;;;;;;;;;5071729;28;20040;-81
2023/05/04 05:08:56;;;;;;;5.87;3.77;;;;;;;;;;5072375;28;20066;-79
2023/05/04 05:11:22;;;;;;;7.20;4.43;;;;;;;;;;5072412;28;20060;-78
2023/05/04 05:13:50;;;;;;;8.80;4.43;;;;;;;;;;5070359;28;20017;-79
2023/05/04 05:16:16;;;;;;;11.07;4.67;;;;;;;;;;5081602;28;20021;-80
2023/05/04 05:18:42;;;;;;;12.83;4.40;;;;;;;;;;5071892;28;20055;-79
2023/05/04 05:21:09;;;;;;;12.63;4.63;;;;;;;;;;5071882;28;20055;-81
2023/05/04 05:23:35;;;;;;;13.83;4.90;;;;;;;;;;5072351;28;20017;-79
2023/05/04 05:26:01;;;;;;;10.03;5.03;;;;;;;;;;5069873;28;20029;-79
2023/05/04 05:28:28;;;;;;;11.33;4.40;;;;;;;;;;5071275;28;20052;-80
2023/05/04 05:30:54;;;;;;;16.83;5.07;;;;;;;;;;5069670;28;20032;-79
2023/05/04 05:33:20;;;;;;;16.93;5.17;;;;;;;;;;5066956;28;20021;-80
2023/05/04 05:35:46;;;;;;;8.67;4.00;;;;;;;;;;5071548;28;20033;-79
2023/05/04 05:38:14;;;;;;;13.50;4.27;;;;;;;;;;5068628;28;20101;-79
2023/05/04 05:40:40;;;;;;;6.70;3.90;;;;;;;;;;5072392;28;20088;-79
2023/05/04 05:43:06;;;;;;;4.57;3.07;;;;;;;;;;5075872;28;20037;-78
2023/05/04 05:45:33;;;;;;;7.13;2.93;;;;;;;;;;5073640;28;20028;-79
2023/05/04 05:47:59;;;;;;;17.20;4.23;;;;;;;;;;5073073;28;20024;-78
2023/05/04 05:50:27;;;;;;;14.93;3.93;;;;;;;;;;5073658;28;20040;-78
2023/05/04 05:52:55;;;;;;;6.20;3.40;;;;;;;;;;5075571;28;20039;-79
2023/05/04 05:55:21;;;;;;;11.07;3.47;;;;;;;;;;5076297;28;20005;-78
2023/05/04 05:57:50;;;;;;;11.37;3.57;;;;;;;;;;5074603;28;20021;-79
2023/05/04 06:00:20;;;;;;;12.10;3.03;;;;;;;;;;5071418;28;20049;-79
2023/05/04 06:02:46;;;;;;;8.47;3.23;;;;;;;;;;5074954;28;20048;-79
2023/05/04 06:05:12;;;;;;;9.17;3.27;;;;;;;;;;5073951;28;20021;-78
2023/05/04 06:07:40;;;;;;;12.37;3.87;;;;;;;;;;5075031;28;20025;-78
2023/05/04 06:10:07;;;;;;;5.47;3.13;;;;;;;;;;5073704;28;20013;-77
2023/05/04 06:12:33;;;;;;;9.53;3.57;;;;;;;;;;5075014;28;20025;-78
2023/05/04 06:15:00;;;;;;;7.40;3.37;;;;;;;;;;5073591;28;20059;-78
2023/05/04 06:17:26;;;;;;;10.40;4.67;;;;;;;;;;5074589;28;20037;-79
2023/05/04 06:19:54;;;;;;;8.30;2.87;;;;;;;;;;5073829;28;20028;-79
2023/05/04 06:22:20;;;;;;;9.57;3.07;;;;;;;;;;5087531;28;20032;-78
2023/05/04 06:24:46;;;;;;;9.07;3.10;;;;;;;;;;5075155;28;20079;-79
2023/05/04 06:27:27;;;;;;;5.37;3.27;;;;;;;;;;5074654;28;20031;-78
2023/05/04 06:29:58;;;;;;;10.90;3.60;;;;;;;;;;5072903;28;20013;-78
2023/05/04 06:32:29;;;;;;;5.90;3.70;;;;;;;;;;5074376;28;20047;-78
2023/05/04 06:34:58;;;;;;;14.80;3.90;;;;;;;;;;5075021;28;20025;-79
2023/05/04 06:37:25;;;;;;;6.23;3.00;;;;;;;;;;5075269;28;20017;-79
2023/05/04 06:39:51;;;;;;;13.60;3.67;;;;;;;;;;5088331;28;20058;-78
2023/05/04 06:42:17;;;;;;;26.60;4.17;;;;;;;;;;5074425;28;20021;-78
2023/05/04 06:44:46;;;;;;;6.43;3.47;;;;;;;;;;5075329;28;20041;-79
2023/05/04 06:47:12;;;;;;;9.27;3.47;;;;;;;;;;5071293;28;20024;-77
2023/05/04 06:49:38;;;;;;;6.27;2.93;;;;;;;;;;5074156;28;20052;-79
2023/05/04 06:52:06;;;;;;;10.27;3.97;;;;;;;;;;5072025;28;20089;-79
2023/05/04 06:54:32;;;;;;;6.30;3.00;;;;;;;;;;5073846;28;20017;-79
2023/05/04 06:56:58;;;;;;;8.40;2.90;;;;;;;;;;5074297;28;20017;-80
2023/05/04 06:59:24;;;;;;;6.70;3.47;;;;;;;;;;5074906;28;20041;-79
2023/05/04 07:01:50;;;;;;;5.73;3.13;;;;;;;;;;5072093;28;20047;-78
2023/05/04 07:04:20;;;;;;;6.73;3.60;;;;;;;;;;5073410;28;20025;-78
2023/05/04 07:06:49;;;;;;;6.50;3.13;;;;;;;;;;5073908;28;20021;-78
2023/05/04 07:09:16;;;;;;;6.67;3.07;;;;;;;;;;5074400;28;20013;-79
2023/05/04 07:11:42;;;;;;;8.40;2.90;;;;;;;;;;5072236;28;20051;-78
2023/05/04 07:14:10;;;;;;;6.90;3.70;;;;;;;;;;5073093;28;20017;-78
2023/05/04 07:16:37;;;;;;;10.10;3.37;;;;;;;;;;5073637;28;20016;-78
2023/05/04 07:19:06;;;;;;;11.37;3.20;;;;;;;;;;5073224;28;20021;-79
2023/05/04 07:21:32;;;;;;;8.13;3.10;;;;;;;;;;5073232;28;20044;-78
2023/05/04 07:23:58;;;;;;;4.20;2.70;;;;;;;;;;5073203;28;20093;-79
2023/05/04 07:26:24;;;;;;;10.33;2.80;;;;;;;;;;5070199;28;20017;-78
2023/05/04 07:28:50;;;;;;;18.23;3.47;;;;;;;;;;5073941;28;20109;-78
2023/05/04 07:31:19;;;;;;;6.10;2.83;;;;;;;;;;5087646;28;20032;-78
2023/05/04 07:33:48;;;;;;;9.20;4.20;;;;;;;;;;5073763;28;20026;-79
2023/05/04 07:36:14;;;;;;;8.20;3.50;;;;;;;;;;5073090;28;20013;-78
2023/05/04 07:38:40;;;;;;;7.93;2.87;;;;;;;;;;5086567;28;20051;-78
2023/05/04 07:41:06;;;;;;;10.40;3.83;;;;;;;;;;5070098;28;20065;-78
2023/05/04 07:43:32;;;;;;;7.23;2.80;;;;;;;;;;5069339;28;20017;-79
2023/05/04 07:45:58;;;;;;;8.40;3.00;;;;;;;;;;5073162;28;20012;-78
2023/05/04 07:48:24;;;;;;;7.63;2.67;;;;;;;;;;5073615;28;20024;-79
2023/05/04 07:50:50;;;;;;;4.57;2.80;;;;;;;;;;5073576;28;20037;-79
2023/05/04 07:53:19;;;;;;;8.57;3.83;;;;;;;;;;5073650;28;20032;-79
2023/05/04 07:55:45;;;;;;;9.10;2.80;;;;;;;;;;5071065;28;20029;-79
2023/05/04 07:58:14;;;;;;;5.07;2.63;;;;;;;;;;5073109;28;20028;-78
2023/05/04 08:00:40;;;;;;;11.40;3.00;;;;;;;;;;5071422;28;20021;-78
2023/05/04 08:03:09;;;;;;;6.33;2.60;;;;;;;;;;5086922;28;20043;-78
2023/05/04 08:05:37;;;;;;;7.73;2.97;;;;;;;;;;5087948;28;20031;-78
2023/05/04 08:08:06;;;;;;;10.27;3.67;;;;;;;;;;5073111;28;20037;-78
2023/05/04 08:10:35;;;;;;;10.03;2.97;;;;;;;;;;5073154;28;20016;-78
2023/05/04 08:13:04;;;;;;;7.53;3.00;;;;;;;;;;5088520;28;20025;-79
2023/05/04 08:15:30;;;;;;;8.47;3.30;;;;;;;;;;5072909;28;20046;-79
2023/05/04 08:17:58;;;;;;;10.40;3.57;;;;;;;;;;5073092;28;20092;-79
2023/05/04 08:20:24;;;;;;;7.27;3.70;;;;;;;;;;5073132;28;20021;-78
2023/05/04 08:22:50;;;;;;;6.03;2.93;;;;;;;;;;5072087;28;20009;-80
2023/05/04 08:25:16;;;;;;;6.77;2.93;;;;;;;;;;5072353;28;20056;-78
2023/05/04 08:27:48;;;;;;;6.03;2.97;;;;;;;;;;5071898;28;20071;-78
2023/05/04 08:30:15;;;;;;;5.30;3.27;;;;;;;;;;5072785;28;20021;-79
2023/05/04 08:32:41;;;;;;;8.33;3.43;;;;;;;;;;5072652;28;20025;-78
2023/05/04 08:35:13;;;;;;;9.33;3.17;;;;;;;;;;5073252;28;20033;-78
2023/05/04 08:37:41;;;;;;;6.93;3.05;;;;;;;;;;5072804;28;20076;-79
2023/05/04 08:40:07;;;;;;;8.07;3.37;;;;;;;;;;5072239;28;20234;-79
2023/05/04 08:42:34;;;;;;;7.53;4.30;;;;;;;;;;5072602;28;20062;-80
2023/05/04 08:45:00;;;;;;;6.57;3.73;;;;;;;;;;5072240;28;20032;-78
2023/05/04 08:47:26;;;;;;;9.63;4.37;;;;;;;;;;5086959;28;20033;-78
2023/05/04 08:49:53;;;;;;;8.90;4.10;;;;;;;;;;5071650;28;20028;-79
2023/05/04 08:52:23;;;;;;;8.53;4.37;;;;;;;;;;5072388;28;20055;-78
2023/05/04 08:55:15;;;;;;;10.53;4.43;;;;;;;;;;5071738;28;20029;-79
2023/05/04 08:57:44;;;;;;;6.97;3.88;;;;;;;;;;5071204;28;20021;-79
2023/05/04 09:00:16;;;;;;;9.70;4.20;;;;;;;;;;5071438;28;20033;-78
2023/05/04 09:02:42;;;;;;;10.73;4.35;;;;;;;;;;5072433;28;20029;-79
2023/05/04 09:05:10;;;;;;;8.00;4.90;;;;;;;;;;5071743;28;20116;-77
2023/05/04 09:07:36;;;;;;;7.88;4.93;;;;;;;;;;5086526;28;20060;-78
2023/05/04 09:10:05;;;;;;;7.93;4.60;;;;;;;;;;5072695;28;20009;-78
2023/05/04 09:12:31;;;;;;;7.07;4.18;;;;;;;;;;5070022;28;20049;-78
2023/05/04 09:15:00;;;;;;;7.22;4.57;;;;;;;;;;5070386;28;21094;-79
2023/05/04 09:17:28;;;;;;;10.90;5.55;;;;;;;;;;5089243;28;20021;-79
2023/05/04 09:20:03;;;;;;;10.32;5.00;;;;;;;;;;5073733;28;20040;-79
2023/05/04 09:22:32;;;;;;;12.38;4.55;;;;;;;;;;5076809;28;20017;-80
2023/05/04 09:25:07;;;;;;;9.68;5.10;;;;;;;;;;5073110;28;20013;-79
2023/05/04 09:27:35;;;;;;;8.93;4.85;;;;;;;;;;5075385;28;20029;-80
2023/05/04 09:30:10;;;;;;;7.22;5.57;;;;;;;;;;5072245;28;20032;-79
2023/05/04 09:32:45;;;;;;;12.65;5.55;;;;;;;;;;5075859;28;20056;-79
2023/05/04 09:35:11;;;;;;;7.20;5.03;;;;;;;;;;5075005;28;20029;-79
2023/05/04 09:37:47;;;;;;;7.28;4.60;;;;;;;;;;5074974;28;20021;-78
2023/05/04 09:40:14;;;;;;;10.13;4.43;;;;;;;;;;5075609;28;20033;-77
2023/05/04 09:42:48;;;;;;;11.25;3.90;;;;;;;;;;5075082;28;20013;-79
2023/05/04 09:45:16;;;;;;;8.35;4.32;;;;;;;;;;5073871;28;20018;-78
2023/05/04 09:47:43;;;;;;;9.20;4.75;;;;;;;;;;5073901;28;20044;-79
2023/05/04 09:50:15;;;;;;;7.45;4.40;;;;;;;;;;5073330;28;20047;-78
2023/05/04 09:53:24;;;;;;;7.20;4.72;;;;;;;;;;5074725;28;20025;-79
2023/05/04 09:55:31;;;;;;;14.05;4.63;;;;;;;;;;5070232;28;20037;-79
2023/05/04 09:58:02;;;;;;;9.02;4.47;;;;;;;;;;5072678;28;20021;-80
2023/05/04 10:00:31;;;;;;;9.15;3.97;;;;;;;;;;5087448;28;20038;-79
2023/05/04 10:03:03;;;;;;;8.15;4.65;;;;;;;;;;5089100;28;20025;-79
2023/05/04 10:05:29;;;;;;;9.02;4.65;;;;;;;;;;5075601;28;20029;-79
2023/05/04 10:07:59;;;;;;;7.35;4.15;;;;;;;;;;5072911;28;20021;-78
2023/05/04 10:10:26;;;;;;;10.13;4.63;;;;;;;;;;5072390;28;20071;-78
2023/05/04 10:12:59;;;;;;;8.48;3.97;;;;;;;;;;5071438;28;20055;-79
2023/05/04 10:15:25;;;;;;;10.15;4.50;;;;;;;;;;5072985;28;20021;-80
2023/05/04 10:18:15;;;;;;;7.05;4.18;;;;;;;;;;5071200;28;20092;-78
2023/05/04 10:20:50;;;;;;;8.63;4.60;;;;;;;;;;5070904;28;20096;-79
2023/05/04 10:23:16;;;;;;;5.93;3.90;;;;;;;;;;5089513;28;20025;-77
2023/05/04 10:26:01;;;;;;;6.80;3.58;;;;;;;;;;5072968;28;20148;-79
2023/05/04 10:28:40;;;;;;;5.03;3.28;;;;;;;;;;5088503;28;20036;-78
2023/05/04 10:31:06;;;;;;;10.10;3.88;;;;;;;;;;5069857;28;20037;-79
2023/05/04 10:33:39;;;;;;;5.00;3.80;;;;;;;;;;5070278;28;20052;-82
2023/05/04 10:36:15;;;;;;;15.50;4.35;;;;;;;;;;5071762;28;20070;-79
2023/05/04 10:38:41;;;;;;;6.65;3.80;;;;;;;;;;5069910;28;20025;-79
2023/05/04 10:41:36;;;;;;;5.95;3.70;;;;;;;;;;5072004;28;20033;-78
2023/05/04 10:44:08;;;;;;;6.70;3.78;;;;;;;;;;5086714;28;20085;-79
2023/05/04 10:46:35;;;;;;;5.20;3.55;;;;;;;;;;5070101;28;20021;-79
2023/05/04 10:49:01;;;;;;;8.68;3.33;;;;;;;;;;5071769;28;20033;-79
2023/05/04 10:51:27;;;;;;;12.00;4.10;;;;;;;;;;5069613;28;20032;-79
2023/05/04 10:53:56;;;;;;;6.50;3.30;;;;;;;;;;5072745;28;20021;-81
2023/05/04 10:56:29;;;;;;;8.38;3.45;;;;;;;;;;5085631;28;20018;-78
2023/05/04 10:58:55;;;;;;;6.55;3.78;;;;;;;;;;5084551;28;20043;-79
2023/05/04 11:01:23;;;;;;;8.57;3.78;;;;;;;;;;5067088;28;20013;-79
2023/05/04 11:03:51;;;;;;;11.32;3.58;;;;;;;;;;5069221;28;20014;-81
2023/05/04 11:06:24;;;;;;;4.40;2.83;;;;;;;;;;5085866;28;20040;-81
2023/05/04 11:09:02;;;;;;;5.35;3.00;;;;;;;;;;5082290;28;20037;-79
2023/05/04 11:11:28;;;;;;;5.25;2.85;;;;;;;;;;5067406;28;20025;-79
2023/05/04 11:13:54;;;;;;;7.10;3.60;;;;;;;;;;5070980;28;20041;-79
2023/05/04 11:16:24;;;;;;;8.25;3.13;;;;;;;;;;5070222;28;20032;-79
2023/05/04 11:18:53;;;;;;;7.18;3.08;;;;;;;;;;5064344;28;20032;-79
2023/05/04 11:21:28;;;;;;;5.57;2.75;;;;;;;;;;5065057;28;20017;-80
2023/05/04 11:24:02;;;;;;;6.28;2.70;;;;;;;;;;5065416;28;20029;-78
2023/05/04 11:26:28;;;;;;;4.45;2.72;;;;;;;;;;5070373;28;20009;-80
2023/05/04 11:28:54;;;;;;;5.20;2.97;;;;;;;;;;5067006;28;20029;-79
2023/05/04 11:31:21;;;;;;;5.85;2.70;;;;;;;;;;5066736;28;20013;-79
2023/05/04 11:33:47;;;;;;;5.68;2.63;;;;;;;;;;5066298;28;20009;-79
2023/05/04 11:36:13;;;;;;;11.13;3.00;;;;;;;;;;5070564;28;20025;-80
2023/05/04 11:38:39;;;;;;;9.68;2.92;;;;;;;;;;5081803;28;20022;-78
2023/05/04 11:41:05;;;;;;;5.38;2.90;;;;;;;;;;5065408;28;20045;-79
2023/05/04 11:43:35;;;;;;;5.10;3.00;;;;;;;;;;5066413;28;20029;-78
2023/05/04 11:46:04;;;;;;;4.05;2.30;;;;;;;;;;5069540;28;20017;-80
2023/05/04 11:48:31;;;;;;;8.85;2.53;;;;;;;;;;5069133;28;20045;-79
2023/05/04 11:50:57;;;;;;;9.95;2.75;;;;;;;;;;5068119;28;20047;-79
2023/05/04 11:53:23;;;;;;;6.20;3.03;;;;;;;;;;5067973;28;20468;-79
2023/05/04 11:55:53;;;;;;;5.85;2.60;;;;;;;;;;5081718;28;20025;-79
2023/05/04 11:58:24;;;;;;;6.40;2.20;;;;;;;;;;5067511;28;20021;-80
2023/05/04 12:00:54;;;;;;;7.10;2.33;;;;;;;;;;5082428;28;20059;-80
2023/05/04 12:03:28;;;;;;;3.83;2.50;;;;;;;;;;5066546;28;20272;-79
2023/05/04 12:05:56;;;;;;;6.88;2.88;;;;;;;;;;5069178;28;20033;-79
2023/05/04 12:08:22;;;;;;;11.40;2.85;;;;;;;;;;5081713;28;20020;-79
2023/05/04 12:10:51;;;;;;;5.68;2.30;;;;;;;;;;5067648;28;20093;-80
2023/05/04 12:13:17;;;;;;;3.50;1.95;;;;;;;;;;5083074;28;20033;-79
2023/05/04 12:15:43;;;;;;;3.55;2.50;;;;;;;;;;5084194;28;20033;-80
2023/05/04 12:18:20;;;;;;;9.40;2.83;;;;;;;;;;5065336;28;20013;-79
2023/05/04 12:20:47;;;;;;;4.82;2.38;;;;;;;;;;5066036;28;20084;-79
2023/05/04 12:23:15;;;;;;;6.95;2.13;;;;;;;;;;5068487;28;20035;-80
2023/05/04 12:25:41;;;;;;;14.25;3.25;;;;;;;;;;5064363;28;20060;-79
2023/05/04 12:28:10;;;;;;;7.60;2.35;;;;;;;;;;5069032;28;20017;-79
2023/05/04 12:30:36;;;;;;;5.50;1.88;;;;;;;;;;5065925;28;20044;-79
2023/05/04 12:33:04;;;;;;;7.05;2.22;;;;;;;;;;5084264;28;20017;-79
2023/05/04 12:35:30;;;;;;;6.47;2.13;;;;;;;;;;5069362;28;20059;-80
2023/05/04 12:37:56;;;;;;;6.38;2.63;;;;;;;;;;5066384;28;20056;-79
2023/05/04 12:40:22;;;;;;;4.35;2.28;;;;;;;;;;5068857;28;20056;-79
2023/05/04 12:42:49;;;;;;;6.72;2.35;;;;;;;;;;5069890;28;20035;-79
2023/05/04 12:45:17;;;;;;;10.18;1.92;;;;;;;;;;5065793;28;20108;-79
2023/05/04 12:47:43;;;;;;;5.38;2.10;;;;;;;;;;5065137;28;20021;-81
2023/05/04 12:50:11;;;;;;;5.63;2.42;;;;;;;;;;5068046;28;20021;-79
2023/05/04 12:52:39;;;;;;;4.00;2.35;;;;;;;;;;5067096;28;20025;-79
2023/05/04 12:55:06;;;;;;;6.00;2.08;;;;;;;;;;5066891;28;20029;-79
2023/05/04 12:57:35;;;;;;;4.28;2.05;;;;;;;;;;5069413;28;20013;-79
2023/05/04 13:00:01;;;;;;;8.35;2.53;;;;;;;;;;5067858;28;20105;-79
2023/05/04 13:02:27;;;;;;;7.15;1.88;;;;;;;;;;5068871;28;20056;-79
2023/05/04 13:04:53;;;;;;;6.13;1.90;;;;;;;;;;5068088;28;20100;-78
2023/05/04 13:07:19;;;;;;;5.13;2.10;;;;;;;;;;5070345;28;20009;-78
2023/05/04 13:09:45;;;;;;;7.88;2.55;;;;;;;;;;5087141;28;20017;-80
2023/05/04 13:12:11;;;;;;;7.15;2.13;;;;;;;;;;5068863;28;20032;-79
2023/05/04 13:14:37;;;;;;;3.53;1.73;;;;;;;;;;5066628;28;20029;-79
2023/05/04 13:17:04;;;;;;;3.90;2.00;;;;;;;;;;5069297;28;20040;-80
2023/05/04 13:19:30;;;;;;;7.68;2.53;;;;;;;;;;5067795;28;20029;-83
2023/05/04 13:21:56;;;;;;;9.88;2.25;;;;;;;;;;5060956;28;20031;-83
2023/05/04 13:24:22;;;;;;;4.03;1.95;;;;;;;;;;5065896;28;20025;-79
2023/05/04 13:26:48;;;;;;;4.88;2.40;;;;;;;;;;5067306;28;20048;-80
2023/05/04 13:29:15;;;;;;;4.28;2.17;;;;;;;;;;5064067;28;20037;-82
2023/05/04 13:31:41;;;;;;;6.32;2.55;;;;;;;;;;5056116;28;20033;-85
2023/05/04 13:34:07;;;;;;;5.18;2.05;;;;;;;;;;5054839;28;20064;-84
2023/05/04 13:36:33;;;;;;;4.93;2.30;;;;;;;;;;5058528;28;20067;-85
2023/05/04 13:38:59;;;;;;;6.20;2.17;;;;;;;;;;5051807;28;20387;-84
2023/05/04 13:41:25;;;;;;;4.80;2.58;;;;;;;;;;5050251;28;20021;-84
2023/05/04 13:43:52;;;;;;;7.88;2.20;;;;;;;;;;5048680;28;20147;-87
2023/05/04 13:46:18;;;;;;;4.72;1.92;;;;;;;;;;5049219;28;20071;-87
2023/05/04 13:48:44;;;;;;;5.47;2.22;;;;;;;;;;5047281;28;20032;-87
2023/05/04 13:51:10;;;;;;;5.65;2.08;;;;;;;;;;5050273;28;20033;-88
2023/05/04 13:53:39;;;;;;;6.13;2.58;;;;;;;;;;5061071;28;20037;-88
2023/05/04 13:56:05;;;;;;;4.68;2.17;;;;;;;;;;5051389;28;20021;-86
2023/05/04 13:58:31;;;;;;;3.45;2.20;;;;;;;;;;5052110;28;20040;-87
2023/05/04 14:00:59;;;;;;;7.63;2.42;;;;;;;;;;5045333;28;20033;-86
2023/05/04 14:03:34;;;;;;;6.82;2.55;;;;;;;;;;5047780;28;20021;-87
2023/05/04 14:06:00;;;;;;;3.88;2.15;;;;;;;;;;5054039;28;20029;-86
2023/05/04 14:08:26;;;;;;;6.90;2.30;;;;;;;;;;5053365;28;20040;-84
2023/05/04 14:10:52;;;;;;;4.65;1.80;;;;;;;;;;5053413;28;20401;-87
2023/05/04 14:13:18;;;;;;;3.78;1.80;;;;;;;;;;5055275;28;20036;-88
2023/05/04 14:15:44;;;;;;;3.22;2.03;;;;;;;;;;5055224;28;20028;-85
2023/05/04 14:18:10;;;;;;;6.43;2.33;;;;;;;;;;5055245;28;20028;-87
2023/05/04 14:20:36;;;;;;;3.80;2.10;;;;;;;;;;5052662;28;20398;-87
2023/05/04 14:23:02;;;;;;;8.57;2.22;;;;;;;;;;5055201;28;20336;-86
2023/05/04 14:25:28;;;;;;;4.50;2.03;;;;;;;;;;5051505;28;20107;-87
2023/05/04 14:27:57;;;;;;;3.65;2.10;;;;;;;;;;5053216;28;20021;-86
2023/05/04 14:30:23;;;;;;;3.90;2.30;;;;;;;;;;5053792;28;20028;-85
2023/05/04 14:32:56;;;;;;;4.75;2.28;;;;;;;;;;5053173;28;20030;-87
2023/05/04 14:35:23;;;;;;;7.78;2.25;;;;;;;;;;5053932;28;20025;-86
2023/05/04 14:37:48;;;;;;;4.32;2.28;;;;;;;;;;5050795;28;20029;-86
2023/05/04 14:40:15;;;;;;;3.22;2.38;;;;;;;;;;5068248;28;20036;-86
2023/05/04 14:42:41;;;;;;;5.25;2.63;;;;;;;;;;5054654;28;20021;-85